createdAt,value
2022-09-05T00:01:28.029Z,49.20
2022-09-05T00:04:23.588Z,49.42
2022-09-05T00:06:53.769Z,49.26
2022-09-05T00:09:39.044Z,49.67
2022-09-05T00:12:06.425Z,49.66
2022-09-05T00:15:17.796Z,49.38
2022-09-05T00:18:11.976Z,49.05
2022-09-05T00:24:19.421Z,49.65
2022-09-05T00:24:37.911Z,49.60
2022-09-05T00:26:50.542Z,49.62
2022-09-05T00:30:32.096Z,50.02
2022-09-05T00:32:36.438Z,50.11
2022-09-05T00:35:12.545Z,50.13
2022-09-05T00:37:44.134Z,49.90
2022-09-05T00:40:31.128Z,49.86
2022-09-05T00:43:13.152Z,49.41
2022-09-05T00:45:43.608Z,49.30
2022-09-05T00:48:17.683Z,49.69
2022-09-05T00:51:03.003Z,49.46
2022-09-05T00:53:50.051Z,49.45
2022-09-05T00:56:22.385Z,50.32
2022-09-05T00:59:04.289Z,50.12
2022-09-05T01:01:37.528Z,50.30
2022-09-05T01:04:11.165Z,50.56
2022-09-05T01:06:56.100Z,50.50
2022-09-05T01:09:28.843Z,50.74
2022-09-05T01:12:14.155Z,49.79
2022-09-05T01:14:52.634Z,50.38
2022-09-05T01:17:21.990Z,50.90
2022-09-05T01:20:19.523Z,51.36
2022-09-05T01:22:46.956Z,51.35
2022-09-05T01:25:16.177Z,51.49
2022-09-05T01:29:13.087Z,51.53
2022-09-05T01:30:48.841Z,51.51
2022-09-05T01:33:15.557Z,51.55
2022-09-05T01:35:42.018Z,51.36
2022-09-05T01:38:33.913Z,51.54
2022-09-05T01:41:18.427Z,51.46
2022-09-05T01:44:04.679Z,51.50
2022-09-05T01:46:37.242Z,51.25
2022-09-05T01:49:25.188Z,51.68
2022-09-05T01:51:57.812Z,51.37
2022-09-05T01:54:39.505Z,51.12
2022-09-05T01:57:09.309Z,51.41
2022-09-05T01:59:45.910Z,51.23
2022-09-05T02:02:18.476Z,51.54
2022-09-05T02:04:48.113Z,51.70
2022-09-05T02:07:30.542Z,51.92
2022-09-05T02:10:06.991Z,52.25
2022-09-05T02:13:02.388Z,52.01
2022-09-05T02:15:59.835Z,52.51
2022-09-05T02:18:46.904Z,52.85
2022-09-05T02:21:55.988Z,52.68
2022-09-05T02:24:44.131Z,52.65
2022-09-05T02:27:10.907Z,53.40
2022-09-05T02:30:09.552Z,53.45
2022-09-05T02:32:36.035Z,53.28
2022-09-05T02:35:24.750Z,53.82
2022-09-05T02:42:19.555Z,54.21
2022-09-05T02:45:02.889Z,54.58
2022-09-05T02:45:17.000Z,54.36
2022-09-05T02:46:55.874Z,54.60
2022-09-05T02:51:01.248Z,54.86
2022-09-05T02:57:43.080Z,55.24
2022-09-05T02:57:46.866Z,54.99
2022-09-05T02:58:23.657Z,55.16
2022-09-05T03:01:09.490Z,55.57
2022-09-05T03:03:48.205Z,55.85
2022-09-05T03:06:34.266Z,55.60
2022-09-05T03:09:16.881Z,55.98
2022-09-05T03:12:27.151Z,55.46
2022-09-05T03:15:22.898Z,55.49
2022-09-05T03:18:31.263Z,55.95
2022-09-05T03:21:08.983Z,56.15
2022-09-05T03:23:45.470Z,56.39
2022-09-05T03:26:34.652Z,56.46
2022-09-05T03:29:04.234Z,56.77
2022-09-05T03:31:56.816Z,56.35
2022-09-05T03:34:26.048Z,56.69
2022-09-05T03:36:52.511Z,57.12
2022-09-05T03:39:19.040Z,57.41
2022-09-05T03:41:59.718Z,57.33
2022-09-05T03:44:44.504Z,57.85
2022-09-05T03:47:29.731Z,58.11
2022-09-05T03:53:31.029Z,58.11
2022-09-05T03:57:12.689Z,58.34
2022-09-05T03:57:24.820Z,58.57
2022-09-05T03:58:59.082Z,58.60
2022-09-05T04:02:46.443Z,58.67
2022-09-05T04:08:15.117Z,58.99
2022-09-05T04:08:19.339Z,59.58
2022-09-05T04:10:23.414Z,59.18
2022-09-05T04:12:53.526Z,59.89
2022-09-05T04:15:28.761Z,59.68
2022-09-05T04:18:04.229Z,59.80
2022-09-05T04:20:38.443Z,59.80
2022-09-05T04:23:15.928Z,60.09
2022-09-05T04:25:55.828Z,60.69
2022-09-05T04:28:35.713Z,60.64
2022-09-05T04:31:12.449Z,61.16
2022-09-05T04:33:47.661Z,61.03
2022-09-05T04:36:28.943Z,61.09
2022-09-05T04:39:22.968Z,61.17
2022-09-05T04:41:52.572Z,61.00
2022-09-05T04:44:31.077Z,61.64
2022-09-05T04:47:02.951Z,60.84
2022-09-05T04:49:39.378Z,60.71
2022-09-05T04:52:22.888Z,60.54
2022-09-05T04:55:06.291Z,60.58
2022-09-05T04:57:45.092Z,60.72
2022-09-05T05:06:02.311Z,60.43
2022-09-05T05:06:12.587Z,60.70
2022-09-05T05:06:12.751Z,60.58
2022-09-05T05:08:59.591Z,60.27
2022-09-05T05:17:56.419Z,60.16
2022-09-05T05:18:14.831Z,60.21
2022-09-05T05:18:15.971Z,60.04
2022-09-05T05:20:41.572Z,59.77
2022-09-05T05:23:07.983Z,60.21
2022-09-05T05:25:43.013Z,60.21
2022-09-05T05:28:24.631Z,59.74
2022-09-05T05:30:51.895Z,59.30
2022-09-05T05:33:29.344Z,59.70
2022-09-05T05:35:58.547Z,59.52
2022-09-05T05:38:25.112Z,59.51
2022-09-05T05:41:18.530Z,59.75
2022-09-05T05:43:46.773Z,59.53
2022-09-05T05:46:16.280Z,59.52
2022-09-05T05:48:48.415Z,59.48
2022-09-05T05:52:01.256Z,59.60
2022-09-05T05:55:39.547Z,59.37
2022-09-05T05:57:57.190Z,59.10
2022-09-05T06:00:30.947Z,59.00
2022-09-05T06:03:26.954Z,58.66
2022-09-05T06:05:56.960Z,58.37
2022-09-05T06:10:39.053Z,58.50
2022-09-05T06:14:53.130Z,58.09
2022-09-05T06:15:02.191Z,58.42
2022-09-05T06:17:28.305Z,58.16
2022-09-05T06:22:04.172Z,57.77
2022-09-05T06:23:02.821Z,57.27
2022-09-05T06:25:29.334Z,57.29
2022-09-05T06:28:19.171Z,56.95
2022-09-05T06:30:50.851Z,56.65
2022-09-05T06:33:45.678Z,55.65
2022-09-05T06:36:23.234Z,54.69
2022-09-05T06:38:55.830Z,53.16
2022-09-05T06:41:45.991Z,52.46
2022-09-05T06:44:31.600Z,52.20
2022-09-05T06:47:22.663Z,52.32
2022-09-05T06:49:58.344Z,52.45
2022-09-05T06:52:43.648Z,52.62
2022-09-05T06:55:13.182Z,53.13
2022-09-05T06:57:44.182Z,53.55
2022-09-05T07:00:25.395Z,53.87
2022-09-05T07:03:10.781Z,54.05
2022-09-05T07:05:50.207Z,54.26
2022-09-05T07:08:35.470Z,54.05
2022-09-05T07:11:16.251Z,54.32
2022-09-05T07:13:49.816Z,54.06
2022-09-05T07:16:37.857Z,53.89
2022-09-05T07:19:29.326Z,53.99
2022-09-05T07:22:18.406Z,53.93
2022-09-05T07:25:03.702Z,53.96
2022-09-05T07:27:55.972Z,54.27
2022-09-05T07:30:22.270Z,53.54
2022-09-05T07:32:51.486Z,53.49
2022-09-05T07:35:41.635Z,53.32
2022-09-05T07:38:14.784Z,53.16
2022-09-05T07:40:45.221Z,52.97
2022-09-05T07:43:39.548Z,53.40
2022-09-05T07:46:14.739Z,52.75
2022-09-05T07:48:53.349Z,53.00
2022-09-05T07:55:52.012Z,52.73
2022-09-05T07:57:03.983Z,51.66
2022-09-05T07:59:56.027Z,51.34
2022-09-05T08:02:22.756Z,51.54
2022-09-05T08:04:50.269Z,51.22
2022-09-05T08:07:49.220Z,50.64
2022-09-05T08:10:17.983Z,50.75
2022-09-05T08:13:24.218Z,50.22
2022-09-05T08:15:57.709Z,49.82
2022-09-05T08:18:27.926Z,49.70
2022-09-05T08:21:11.101Z,49.34
2022-09-05T08:23:43.675Z,48.99
2022-09-05T08:26:12.499Z,49.06
2022-09-05T08:28:53.604Z,48.97
2022-09-05T08:31:23.976Z,47.43
2022-09-05T08:33:53.313Z,47.57
2022-09-05T08:36:32.603Z,47.35
2022-09-05T08:39:00.734Z,47.35
2022-09-05T08:41:43.152Z,46.78
2022-09-05T08:46:42.802Z,46.76
2022-09-05T08:47:10.266Z,45.19
2022-09-05T08:49:51.403Z,45.47
2022-09-05T08:52:27.122Z,45.02
2022-09-05T08:55:12.483Z,44.35
2022-09-05T08:57:47.956Z,39.54
2022-09-05T09:00:20.766Z,31.10
2022-09-05T09:03:10.265Z,31.55
2022-09-05T09:06:12.329Z,31.93
2022-09-05T09:08:40.745Z,31.43
2022-09-05T09:11:31.042Z,32.10
2022-09-05T09:14:30.518Z,32.89
2022-09-05T09:17:05.014Z,34.03
2022-09-05T09:19:46.199Z,34.05
2022-09-05T09:22:18.800Z,34.25
2022-09-05T09:25:15.510Z,33.74
2022-09-05T09:28:46.668Z,33.25
2022-09-05T09:30:40.217Z,32.52
2022-09-05T09:33:08.949Z,32.50
2022-09-05T09:35:39.235Z,32.24
2022-09-05T09:38:13.586Z,31.76
2022-09-05T09:41:03.501Z,31.93
2022-09-05T09:43:53.016Z,30.08
2022-09-05T09:46:39.352Z,27.11
2022-09-05T09:49:23.170Z,22.25
2022-09-05T09:52:00.369Z,18.26
2022-09-05T09:54:53.963Z,15.03
2022-09-05T09:57:29.008Z,14.28
2022-09-05T09:59:55.534Z,13.49
2022-09-05T10:03:45.032Z,12.94
2022-09-05T10:10:40.167Z,12.10
2022-09-05T10:11:09.015Z,11.34
2022-09-05T10:11:54.985Z,10.17
2022-09-05T10:14:49.297Z,10.66
2022-09-05T10:17:26.407Z,10.36
2022-09-05T10:20:11.740Z,9.52
2022-09-05T10:22:38.538Z,9.23
2022-09-05T10:25:20.840Z,9.28
2022-09-05T10:27:50.308Z,9.12
2022-09-05T10:31:36.101Z,9.29
2022-09-05T10:35:10.517Z,9.92
2022-09-05T10:36:34.590Z,9.17
2022-09-05T10:39:07.987Z,8.79
2022-09-05T10:42:02.588Z,8.67
2022-09-05T10:44:45.682Z,8.27
2022-09-05T10:47:26.229Z,8.39
2022-09-05T10:50:03.386Z,8.58
2022-09-05T10:52:40.439Z,9.35
2022-09-05T10:55:14.790Z,7.94
2022-09-05T10:57:51.399Z,7.81
2022-09-05T11:02:30.219Z,8.57
2022-09-05T11:03:42.388Z,9.21
2022-09-05T11:06:12.758Z,8.78
2022-09-05T11:08:46.356Z,8.22
2022-09-05T11:11:33.885Z,8.03
2022-09-05T11:14:04.056Z,8.16
2022-09-05T11:16:30.771Z,8.69
2022-09-05T11:19:00.040Z,8.56
2022-09-05T11:21:30.538Z,8.08
2022-09-05T11:24:00.633Z,8.83
2022-09-05T11:26:33.936Z,9.08
2022-09-05T11:29:13.026Z,7.96
2022-09-05T11:31:47.748Z,8.29
2022-09-05T11:40:02.214Z,7.79
2022-09-05T11:40:09.883Z,8.58
2022-09-05T11:40:57.765Z,8.29
2022-09-05T11:43:46.145Z,8.55
2022-09-05T11:46:12.848Z,8.90
2022-09-05T11:48:54.624Z,9.24
2022-09-05T11:51:34.015Z,8.33
2022-09-05T11:54:00.911Z,8.03
2022-09-05T11:56:29.011Z,8.50
2022-09-05T11:59:13.977Z,8.62
2022-09-05T12:02:08.369Z,8.54
2022-09-05T12:04:43.983Z,8.99
2022-09-05T12:07:42.099Z,8.38
2022-09-05T12:10:47.419Z,9.11
2022-09-05T12:13:29.341Z,10.07
2022-09-05T12:16:08.476Z,9.80
2022-09-05T12:19:02.788Z,10.42
2022-09-05T12:22:02.511Z,12.81
2022-09-05T12:25:24.072Z,15.35
2022-09-05T12:27:42.787Z,17.53
2022-09-05T12:30:14.259Z,19.44
2022-09-05T12:36:01.764Z,21.00
2022-09-05T12:36:09.889Z,22.54
2022-09-05T12:40:54.903Z,24.00
2022-09-05T12:41:43.319Z,24.21
2022-09-05T12:44:42.089Z,24.81
2022-09-05T12:47:18.989Z,25.47
2022-09-05T12:50:15.124Z,25.56
2022-09-05T12:52:44.621Z,26.90
2022-09-05T12:55:17.240Z,26.65
2022-09-05T13:02:55.073Z,26.58
2022-09-05T13:03:04.680Z,26.97
2022-09-05T13:03:30.026Z,27.74
2022-09-05T13:05:59.872Z,27.53
2022-09-05T13:08:31.252Z,27.11
2022-09-05T13:14:48.349Z,26.11
2022-09-05T13:14:57.932Z,27.43
2022-09-05T13:16:36.107Z,27.13
2022-09-05T13:19:07.534Z,27.64
2022-09-05T13:21:45.510Z,28.21
2022-09-05T13:24:14.439Z,26.51
2022-09-05T13:26:46.295Z,27.42
2022-09-05T13:29:15.999Z,26.96
2022-09-05T13:37:58.100Z,26.68
2022-09-05T13:38:12.951Z,27.90
2022-09-05T13:38:14.755Z,27.18
2022-09-05T13:40:23.103Z,26.57
2022-09-05T13:43:05.229Z,26.56
2022-09-05T13:45:35.036Z,27.39
2022-09-05T13:48:19.700Z,25.97
2022-09-05T13:50:52.874Z,24.48
2022-09-05T13:53:27.936Z,23.91
2022-09-05T13:56:03.219Z,23.82
2022-09-05T13:58:29.880Z,20.94
2022-09-05T14:00:56.673Z,22.99
2022-09-05T14:03:39.078Z,23.67
2022-09-05T14:06:26.429Z,24.91
2022-09-05T14:11:58.048Z,21.03
2022-09-05T14:20:25.588Z,24.52
2022-09-05T14:23:04.592Z,25.47
2022-09-05T14:25:36.258Z,22.62
2022-09-05T14:28:05.491Z,22.35
2022-09-05T14:33:13.834Z,21.93
2022-09-05T14:37:54.320Z,22.44
2022-09-05T14:37:55.341Z,21.98
2022-09-05T14:39:23.256Z,23.79
2022-09-05T14:42:02.720Z,25.00
2022-09-05T14:44:50.865Z,24.23
2022-09-05T14:47:35.486Z,24.69
2022-09-05T14:50:24.554Z,22.89
2022-09-05T14:57:15.181Z,22.49
2022-09-05T15:02:49.283Z,22.58
2022-09-05T15:02:53.942Z,22.05
2022-09-05T15:05:11.320Z,22.99
2022-09-05T15:07:58.916Z,23.59
2022-09-05T15:12:20.125Z,23.91
2022-09-05T15:13:25.626Z,25.03
2022-09-05T15:16:02.374Z,24.53
2022-09-05T15:18:31.862Z,24.05
2022-09-05T15:21:17.800Z,24.25
2022-09-05T15:24:01.620Z,24.56
2022-09-05T15:26:31.131Z,24.33
2022-09-05T15:29:18.339Z,24.46
2022-09-05T15:31:45.478Z,24.43
2022-09-05T15:34:24.321Z,24.81
2022-09-05T15:36:50.869Z,24.51
2022-09-05T15:39:21.879Z,24.19
2022-09-05T15:41:48.643Z,23.87
2022-09-05T15:44:21.008Z,24.83
2022-09-05T15:46:49.353Z,25.17
2022-09-05T15:49:33.117Z,24.58
2022-09-05T15:52:20.947Z,24.45
2022-09-05T15:54:49.756Z,24.15
2022-09-05T15:57:24.675Z,23.91
2022-09-05T15:59:53.473Z,24.08
2022-09-05T16:02:38.281Z,24.19
2022-09-05T16:10:29.905Z,24.41
2022-09-05T16:10:37.636Z,24.95
2022-09-05T16:11:05.354Z,25.05
2022-09-05T16:13:43.632Z,23.85
2022-09-05T16:23:13.392Z,24.70
2022-09-05T16:23:27.193Z,24.60
2022-09-05T16:23:34.525Z,24.07
2022-09-05T16:24:59.479Z,24.60
2022-09-05T16:27:44.266Z,23.74
2022-09-05T16:30:12.009Z,24.66
2022-09-05T16:32:46.551Z,24.69
2022-09-05T16:35:18.364Z,24.71
2022-09-05T16:38:18.098Z,25.13
2022-09-05T16:40:53.630Z,25.50
2022-09-05T16:43:41.972Z,25.67
2022-09-05T16:46:08.616Z,25.41
2022-09-05T16:48:55.269Z,26.44
2022-09-05T16:51:34.867Z,25.37
2022-09-05T16:54:16.495Z,26.57
2022-09-05T16:56:45.739Z,25.62
2022-09-05T16:59:17.569Z,25.71
2022-09-05T17:01:57.776Z,25.52
2022-09-05T17:05:04.447Z,24.80
2022-09-05T17:07:52.026Z,25.37
2022-09-05T17:10:20.489Z,25.38
2022-09-05T17:12:51.551Z,25.82
2022-09-05T17:15:20.400Z,25.65
2022-09-05T17:18:20.193Z,25.76
2022-09-05T17:20:51.117Z,24.98
2022-09-05T17:27:59.749Z,25.40
2022-09-05T17:29:23.472Z,25.55
2022-09-05T17:29:44.143Z,25.31
2022-09-05T17:31:56.538Z,25.96
2022-09-05T17:34:25.248Z,26.14
2022-09-05T17:36:51.743Z,25.62
2022-09-05T17:39:41.946Z,26.60
2022-09-05T17:42:13.462Z,25.83
2022-09-05T17:44:48.513Z,26.38
2022-09-05T17:47:36.443Z,25.95
2022-09-05T17:50:33.296Z,27.40
2022-09-05T17:53:26.819Z,27.06
2022-09-05T17:55:49.693Z,26.95
2022-09-05T17:58:22.537Z,27.79
2022-09-05T18:00:52.388Z,26.94
2022-09-05T18:03:37.549Z,27.35
2022-09-05T18:06:05.588Z,27.41
2022-09-05T18:08:50.211Z,27.05
2022-09-05T18:11:25.728Z,27.56
2022-09-05T18:13:52.704Z,28.09
2022-09-05T18:16:30.720Z,28.11
2022-09-05T18:19:33.545Z,28.06
2022-09-05T18:21:48.516Z,28.44
2022-09-05T18:24:35.321Z,28.14
2022-09-05T18:27:47.412Z,28.69
2022-09-05T18:30:10.952Z,29.02
2022-09-05T18:33:55.730Z,29.77
2022-09-05T18:35:50.821Z,30.06
2022-09-05T18:38:27.499Z,30.21
2022-09-05T18:41:13.571Z,29.75
2022-09-05T18:44:12.597Z,30.27
2022-09-05T18:46:53.777Z,29.96
2022-09-05T18:50:25.607Z,30.53
2022-09-05T18:52:23.917Z,30.90
2022-09-05T18:55:34.036Z,31.21
2022-09-05T18:57:43.844Z,31.42
2022-09-05T19:00:13.851Z,31.94
2022-09-05T19:02:58.479Z,31.50
2022-09-05T19:05:28.578Z,31.49
2022-09-05T19:07:59.765Z,31.24
2022-09-05T19:10:35.395Z,31.84
2022-09-05T19:13:15.453Z,31.39
2022-09-05T19:15:53.605Z,32.04
2022-09-05T19:18:34.867Z,31.59
2022-09-05T19:21:01.549Z,32.17
2022-09-05T19:23:41.412Z,33.16
2022-09-05T19:26:10.225Z,32.98
2022-09-05T19:36:44.025Z,32.36
2022-09-05T19:36:58.457Z,32.62
2022-09-05T19:37:09.974Z,33.03
2022-09-05T19:37:29.325Z,32.67
2022-09-05T19:46:38.854Z,32.71
2022-09-05T19:47:28.368Z,32.84
2022-09-05T19:47:42.611Z,32.41
2022-09-05T19:48:27.400Z,33.03
2022-09-05T19:50:55.199Z,32.64
2022-09-05T19:53:22.094Z,33.25
2022-09-05T19:55:48.989Z,32.99
2022-09-05T19:58:18.787Z,33.42
2022-09-05T20:01:00.790Z,33.90
2022-09-05T20:03:38.157Z,33.65
2022-09-05T20:06:30.227Z,33.35
2022-09-05T20:09:07.996Z,33.63
2022-09-05T20:11:45.131Z,33.79
2022-09-05T20:14:23.587Z,33.46
2022-09-05T20:16:51.495Z,33.20
2022-09-05T20:19:34.621Z,34.06
2022-09-05T20:22:24.941Z,33.80
2022-09-05T20:24:54.408Z,34.07
2022-09-05T20:27:27.405Z,33.99
2022-09-05T20:30:02.364Z,34.16
2022-09-05T20:32:39.751Z,34.41
2022-09-05T20:38:26.447Z,34.71
2022-09-05T20:43:08.667Z,34.43
2022-09-05T20:43:31.117Z,34.88
2022-09-05T20:44:08.730Z,35.09
2022-09-05T20:52:42.376Z,34.97
2022-09-05T20:54:19.059Z,35.39
2022-09-05T20:54:27.235Z,35.17
2022-09-05T20:55:39.135Z,35.16
2022-09-05T20:58:06.946Z,35.53
2022-09-05T21:00:37.675Z,35.40
2022-09-05T21:03:08.394Z,35.45
2022-09-05T21:05:36.412Z,35.66
2022-09-05T21:08:19.562Z,35.67
2022-09-05T21:10:56.674Z,36.15
2022-09-05T21:13:26.373Z,36.26
2022-09-05T21:15:54.454Z,36.40
2022-09-05T21:18:41.453Z,36.76
2022-09-05T21:21:28.349Z,37.17
2022-09-05T21:24:16.324Z,36.54
2022-09-05T21:26:45.430Z,37.40
2022-09-05T21:29:11.944Z,37.55
2022-09-05T21:31:43.331Z,37.00
2022-09-05T21:34:13.092Z,37.24
2022-09-05T21:36:41.552Z,37.33
2022-09-05T21:39:08.137Z,36.90
2022-09-05T21:41:34.688Z,36.91
2022-09-05T21:47:35.346Z,37.08
2022-09-05T21:47:47.292Z,37.44
2022-09-05T21:49:40.379Z,36.75
2022-09-05T21:52:08.222Z,37.33
2022-09-05T21:59:20.899Z,36.98
2022-09-05T21:59:29.947Z,37.18
2022-09-05T22:00:18.404Z,37.04
2022-09-05T22:02:49.055Z,37.07
2022-09-05T22:05:15.805Z,37.46
2022-09-05T22:07:43.136Z,36.86
2022-09-05T22:10:10.182Z,36.63
2022-09-05T22:12:38.634Z,36.49
2022-09-05T22:15:27.715Z,36.15
2022-09-05T22:18:02.554Z,36.56
2022-09-05T22:20:42.606Z,34.85
2022-09-05T22:23:09.347Z,35.02
2022-09-05T22:25:36.320Z,35.18
2022-09-05T22:28:10.493Z,34.85
2022-09-05T22:30:37.083Z,34.87
2022-09-05T22:33:05.365Z,35.27
2022-09-05T22:35:32.893Z,35.51
2022-09-05T22:38:14.301Z,35.54
2022-09-05T22:40:44.677Z,35.61
2022-09-05T22:43:11.341Z,35.57
2022-09-05T22:45:39.189Z,35.47
2022-09-05T22:48:10.321Z,35.41
2022-09-05T22:50:37.428Z,35.43
2022-09-05T22:53:06.964Z,35.55
2022-09-05T22:55:34.807Z,35.19
2022-09-05T22:58:01.843Z,35.16
2022-09-05T23:00:28.395Z,35.37
2022-09-05T23:02:58.879Z,35.12
2022-09-05T23:05:25.611Z,35.19
2022-09-05T23:07:52.113Z,36.07
2022-09-05T23:10:18.955Z,36.01
2022-09-05T23:12:46.129Z,36.14
2022-09-05T23:15:12.757Z,36.03
2022-09-05T23:17:39.249Z,35.92
2022-09-05T23:20:05.992Z,36.08
2022-09-05T23:22:35.430Z,36.14
2022-09-05T23:25:02.037Z,36.54
2022-09-05T23:27:29.891Z,36.52
2022-09-05T23:29:56.565Z,36.28
2022-09-05T23:32:23.160Z,36.48
2022-09-05T23:34:50.241Z,36.62
2022-09-05T23:37:16.970Z,37.01
2022-09-05T23:39:43.769Z,37.01
2022-09-05T23:42:10.560Z,36.83
2022-09-05T23:44:37.121Z,36.62
2022-09-05T23:47:03.658Z,37.34
2022-09-05T23:49:30.144Z,38.69
2022-09-05T23:51:56.683Z,39.89
2022-09-05T23:54:23.217Z,40.00
2022-09-05T23:56:49.799Z,40.93
2022-09-05T23:59:16.355Z,40.52
